Time;durP1;ratioP1;P1;durP2;ratioP2;P2;SDS_P1;SDS_P2;PMS_P1;PMS_P2;Temp;Humidity;BMP_temperature;BMP_pressure;BME280_temperature;BME280_humidity;BME280_pressure;Samples;Min_cycle;Max_cycle;Signal;HPM_P1;HPM_P2
2022/08/02 00:02:25;;;;;;;3.10;2.00;;;19.40;90.30;;;;;;5037216;28;20541;-48
2022/08/02 00:04:52;;;;;;;5.93;1.57;;;19.20;90.70;;;;;;5036058;28;20977;-49
2022/08/02 00:07:20;;;;;;;2.57;2.10;;;19.10;90.90;;;;;;5033794;28;20495;-48
2022/08/02 00:09:46;;;;;;;2.70;2.10;;;19.10;91.20;;;;;;5029703;28;20474;-48
2022/08/02 00:12:13;;;;;;;2.50;1.53;;;19.00;90.80;;;;;;5041273;28;21087;-48
2022/08/02 00:14:40;;;;;;;3.03;1.77;;;19.00;91.00;;;;;;5036951;28;20913;-49
2022/08/02 00:17:07;;;;;;;3.57;1.43;;;19.00;90.70;;;;;;5041038;28;20523;-48
2022/08/02 00:19:34;;;;;;;2.47;1.53;;;19.00;90.90;;;;;;5039707;28;21114;-48
2022/08/02 00:22:00;;;;;;;3.50;1.70;;;19.00;90.60;;;;;;5041566;28;20538;-48
2022/08/02 00:24:28;;;;;;;4.37;1.80;;;19.00;90.90;;;;;;5035083;28;20495;-48
2022/08/02 00:26:55;;;;;;;2.70;2.27;;;19.10;90.40;;;;;;5029884;28;20910;-48
2022/08/02 00:29:22;;;;;;;3.47;1.57;;;19.10;90.20;;;;;;5053382;28;21129;-48
2022/08/02 00:31:48;;;;;;;2.60;1.73;;;19.10;90.20;;;;;;5041680;28;20890;-48
2022/08/02 00:34:15;;;;;;;4.60;1.83;;;;;;;;;;5038479;28;20475;-48
2022/08/02 00:36:42;;;;;;;11.03;1.60;;;19.10;90.40;;;;;;5045031;28;20537;-48
2022/08/02 00:39:09;;;;;;;2.70;1.50;;;19.10;90.30;;;;;;5039832;28;20505;-48
2022/08/02 00:41:45;;;;;;;3.10;2.10;;;19.10;90.40;;;;;;5037410;28;20476;-48
2022/08/02 00:44:12;;;;;;;3.90;1.70;;;19.10;90.60;;;;;;5056975;28;20515;-48
2022/08/02 00:46:38;;;;;;;4.17;2.27;;;19.10;90.10;;;;;;5039252;28;20882;-48
2022/08/02 00:49:05;;;;;;;3.83;1.73;;;19.10;90.20;;;;;;5038251;28;20476;-48
2022/08/02 00:51:32;;;;;;;4.50;1.80;;;18.90;90.20;;;;;;5040114;28;20570;-50
2022/08/02 00:53:58;;;;;;;4.67;2.00;;;19.00;90.30;;;;;;5038917;28;20563;-49
2022/08/02 00:56:25;;;;;;;2.37;1.37;;;18.80;90.70;;;;;;5040583;28;20902;-48
2022/08/02 00:58:53;;;;;;;3.43;1.53;;;18.70;90.70;;;;;;5041180;28;20479;-48
2022/08/02 01:01:20;;;;;;;3.37;1.57;;;18.70;90.60;;;;;;5027400;28;20477;-48
2022/08/02 01:03:47;;;;;;;2.50;1.70;;;18.60;90.70;;;;;;5037057;28;20610;-48
2022/08/02 01:06:14;;;;;;;4.33;1.70;;;18.60;90.60;;;;;;5036672;28;21379;-48
2022/08/02 01:08:41;;;;;;;4.90;2.30;;;18.50;90.90;;;;;;5038602;28;20480;-48
2022/08/02 01:11:08;;;;;;;2.23;1.53;;;18.40;90.70;;;;;;5039139;28;20530;-48
2022/08/02 01:13:35;;;;;;;2.30;1.70;;;18.40;90.70;;;;;;5036006;28;20585;-48
2022/08/02 01:16:10;;;;;;;3.57;1.90;;;18.40;90.80;;;;;;5035695;28;20841;-48
2022/08/02 01:18:41;;;;;;;2.10;1.60;;;18.40;90.80;;;;;;5039410;28;20561;-48
2022/08/02 01:21:49;;;;;;;2.37;2.10;;;18.50;90.50;;;;;;5038284;28;20493;-48
2022/08/02 01:24:35;;;;;;;2.47;1.50;;;18.50;90.90;;;;;;4975321;28;21013;-48
2022/08/02 01:27:11;;;;;;;5.57;1.77;;;18.50;90.80;;;;;;5020118;28;20650;-48
2022/08/02 01:29:45;;;;;;;4.07;2.90;;;18.50;90.80;;;;;;5044364;28;20481;-48
2022/08/02 01:32:14;;;;;;;4.37;1.50;;;18.50;90.90;;;;;;5045778;28;20488;-48
2022/08/02 01:34:46;;;;;;;2.47;1.70;;;18.50;90.90;;;;;;5036331;28;20515;-48
2022/08/02 01:37:18;;;;;;;3.73;2.20;;;18.50;90.80;;;;;;5039441;28;20483;-48
2022/08/02 01:39:48;;;;;;;3.30;1.53;;;18.40;91.00;;;;;;5036187;28;20559;-48
2022/08/02 01:42:15;;;;;;;2.93;1.43;;;18.50;90.90;;;;;;5038998;28;20484;-48
2022/08/02 01:44:45;;;;;;;5.50;2.40;;;18.50;91.10;;;;;;5036328;28;20496;-48
2022/08/02 01:47:18;;;;;;;3.80;2.13;;;18.50;91.50;;;;;;5038227;28;20479;-48
2022/08/02 01:49:47;;;;;;;2.30;1.90;;;18.50;91.30;;;;;;5038532;28;20563;-48
2022/08/02 01:52:22;;;;;;;3.90;1.93;;;18.50;90.90;;;;;;5038126;28;20537;-48
2022/08/02 01:54:52;;;;;;;2.83;1.73;;;18.50;91.00;;;;;;5038754;28;20479;-48
2022/08/02 01:57:21;;;;;;;2.67;2.00;;;18.40;91.20;;;;;;5039490;28;20519;-48
2022/08/02 01:59:50;;;;;;;3.00;1.80;;;18.40;91.40;;;;;;5034010;28;20479;-48
2022/08/02 02:02:20;;;;;;;6.57;2.20;;;18.20;91.60;;;;;;5036760;28;20482;-48
2022/08/02 02:04:48;;;;;;;4.00;1.90;;;18.10;92.10;;;;;;5035254;28;20526;-48
2022/08/02 02:07:16;;;;;;;2.50;2.03;;;17.90;92.50;;;;;;5037837;28;20525;-48
2022/08/02 02:09:46;;;;;;;2.70;1.93;;;17.90;92.50;;;;;;5037241;28;21200;-48
2022/08/02 02:12:14;;;;;;;3.87;1.80;;;17.80;92.80;;;;;;5039722;28;20564;-48
2022/08/02 02:14:42;;;;;;;3.23;1.90;;;17.80;92.80;;;;;;5036590;28;20507;-48
2022/08/02 02:17:13;;;;;;;1.90;1.20;;;17.90;92.40;;;;;;5041322;28;20847;-49
2022/08/02 02:19:40;;;;;;;2.37;1.57;;;17.90;92.60;;;;;;5037669;28;20565;-48
2022/08/02 02:22:06;;;;;;;2.40;1.77;;;18.00;92.60;;;;;;5039974;28;20476;-48
2022/08/02 02:24:34;;;;;;;3.33;2.00;;;17.90;92.30;;;;;;5032252;28;20468;-48
2022/08/02 02:27:03;;;;;;;4.20;3.10;;;17.90;92.20;;;;;;5039197;28;20558;-48
2022/08/02 02:29:32;;;;;;;2.60;2.20;;;17.80;92.50;;;;;;5038191;28;20479;-48
2022/08/02 02:32:00;;;;;;;2.73;2.10;;;17.70;92.90;;;;;;5040074;28;20538;-48
2022/08/02 02:34:32;;;;;;;3.73;3.43;;;17.70;93.20;;;;;;5033652;28;21267;-48
2022/08/02 02:37:03;;;;;;;5.77;2.40;;;17.60;93.60;;;;;;5028675;28;20506;-48
2022/08/02 02:39:33;;;;;;;2.60;2.40;;;17.60;93.30;;;;;;5041113;28;20593;-48
2022/08/02 02:42:03;;;;;;;4.87;2.60;;;17.60;93.30;;;;;;5043611;28;20557;-48
2022/08/02 02:44:31;;;;;;;3.47;2.50;;;17.70;93.20;;;;;;5039179;28;20468;-48
2022/08/02 02:46:59;;;;;;;3.70;2.23;;;17.70;93.10;;;;;;5044132;28;20977;-48
2022/08/02 02:49:27;;;;;;;5.60;2.30;;;17.70;93.00;;;;;;5042638;28;20897;-48
2022/08/02 02:51:56;;;;;;;2.10;1.53;;;17.80;93.00;;;;;;5042539;28;20479;-48
2022/08/02 02:54:24;;;;;;;10.87;3.07;;;17.80;93.20;;;;;;5040102;28;20472;-48
2022/08/02 02:56:51;;;;;;;2.27;1.63;;;17.80;93.20;;;;;;5038835;28;20478;-48
2022/08/02 02:59:18;;;;;;;3.00;2.03;;;17.80;92.60;;;;;;5040862;28;20591;-48
2022/08/02 03:01:45;;;;;;;5.13;1.80;;;17.80;92.40;;;;;;5042522;28;20790;-48
2022/08/02 03:04:13;;;;;;;2.63;2.40;;;17.70;92.90;;;;;;5040623;28;20479;-48
2022/08/02 03:06:40;;;;;;;3.60;2.47;;;17.70;93.00;;;;;;5041927;28;20471;-48
2022/08/02 03:09:09;;;;;;;2.03;1.70;;;17.50;93.50;;;;;;5041412;28;20487;-48
2022/08/02 03:11:37;;;;;;;4.50;3.30;;;17.40;93.80;;;;;;5042363;28;20545;-48
2022/08/02 03:14:08;;;;;;;3.83;2.20;;;17.40;93.70;;;;;;5040439;28;20479;-48
2022/08/02 03:16:42;;;;;;;3.53;3.00;;;17.50;93.60;;;;;;5038019;28;21083;-48
2022/08/02 03:19:09;;;;;;;2.50;2.00;;;17.50;93.80;;;;;;5032255;28;20905;-48
2022/08/02 03:21:35;;;;;;;6.00;3.33;;;17.60;93.10;;;;;;5042635;28;20529;-49
2022/08/02 03:24:02;;;;;;;2.97;1.70;;;17.60;93.30;;;;;;5041433;28;20476;-48
2022/08/02 03:26:30;;;;;;;6.30;3.37;;;17.80;92.90;;;;;;5041559;28;20482;-48
2022/08/02 03:28:57;;;;;;;6.50;2.67;;;17.70;93.20;;;;;;5042273;28;20479;-48
2022/08/02 03:31:23;;;;;;;2.83;2.63;;;17.80;92.90;;;;;;5041162;28;20549;-48
2022/08/02 03:33:50;;;;;;;9.53;2.40;;;17.80;92.60;;;;;;5040577;28;20976;-48
2022/08/02 03:36:19;;;;;;;2.40;1.80;;;17.90;92.40;;;;;;5039677;28;20488;-48
2022/08/02 03:38:46;;;;;;;6.20;2.07;;;17.80;92.40;;;;;;5040878;28;21011;-48
2022/08/02 03:41:17;;;;;;;12.53;3.50;;;17.90;92.70;;;;;;5043741;28;20483;-47
2022/08/02 03:43:46;;;;;;;5.73;3.43;;;17.90;93.00;;;;;;5039934;28;20907;-48
2022/08/02 03:46:15;;;;;;;2.80;2.20;;;17.90;93.00;;;;;;5042043;28;20488;-48
2022/08/02 03:48:42;;;;;;;5.20;2.40;;;17.80;92.80;;;;;;5040664;28;20589;-48
2022/08/02 03:51:10;;;;;;;2.43;1.87;;;17.80;92.70;;;;;;5041308;28;21029;-48
2022/08/02 03:53:37;;;;;;;4.10;3.87;;;17.80;92.90;;;;;;5035608;28;20510;-48
2022/08/02 03:56:05;;;;;;;4.50;1.90;;;17.80;92.70;;;;;;5041807;28;20479;-48
2022/08/02 03:58:33;;;;;;;3.67;2.90;;;17.90;92.70;;;;;;5040388;28;20492;-49
2022/08/02 04:01:01;;;;;;;5.40;2.60;;;17.80;92.70;;;;;;5036742;28;20484;-47
2022/08/02 04:03:28;;;;;;;7.87;3.13;;;17.80;92.90;;;;;;5039001;28;20467;-47
2022/08/02 04:05:54;;;;;;;2.50;1.93;;;17.70;92.90;;;;;;5041031;28;20996;-48
2022/08/02 04:08:21;;;;;;;3.60;2.90;;;17.60;93.30;;;;;;5041118;28;20476;-47
2022/08/02 04:13:34;;;;;;;3.50;3.20;;;17.60;93.20;;;;;;5027772;28;20853;-49
2022/08/02 04:16:10;;;;;;;2.73;2.00;;;17.60;93.00;;;;;;5039237;28;20891;-48
2022/08/02 04:18:42;;;;;;;3.70;3.40;;;17.60;93.40;;;;;;5027931;28;20961;-48
2022/08/02 04:21:14;;;;;;;2.33;2.13;;;17.50;93.70;;;;;;5040048;28;20479;-48
2022/08/02 04:23:42;;;;;;;4.93;3.60;;;17.40;94.10;;;;;;5038108;28;20480;-48
2022/08/02 04:26:10;;;;;;;5.17;3.17;;;17.40;94.30;;;;;;5042014;28;20549;-48
2022/08/02 04:28:38;;;;;;;5.60;3.27;;;17.40;94.60;;;;;;5038653;28;20554;-48
2022/08/02 04:31:07;;;;;;;2.90;2.70;;;17.30;95.00;;;;;;5041270;28;20929;-49
2022/08/02 04:33:34;;;;;;;4.60;4.20;;;17.30;95.60;;;;;;5037547;28;21050;-48
2022/08/02 04:36:01;;;;;;;3.63;2.10;;;17.40;95.10;;;;;;5039479;28;20480;-48
2022/08/02 04:38:28;;;;;;;3.20;3.00;;;17.40;94.80;;;;;;5039383;28;20488;-48
2022/08/02 04:40:56;;;;;;;4.10;2.20;;;17.50;94.60;;;;;;5039274;28;20550;-48
2022/08/02 04:43:23;;;;;;;4.50;2.43;;;17.60;94.60;;;;;;5036321;28;20553;-48
2022/08/02 04:45:52;;;;;;;2.80;2.23;;;17.70;94.30;;;;;;5038780;28;20499;-48
2022/08/02 04:48:21;;;;;;;3.00;2.30;;;17.80;93.90;;;;;;5038715;28;20958;-49
2022/08/02 04:50:48;;;;;;;2.10;1.83;;;17.90;93.80;;;;;;5037442;28;20480;-48
2022/08/02 04:53:14;;;;;;;2.70;2.33;;;18.00;93.80;;;;;;5040997;28;20940;-48
2022/08/02 04:55:41;;;;;;;8.03;2.50;;;18.00;94.00;;;;;;5035352;28;20896;-49
2022/08/02 04:58:08;;;;;;;2.33;1.90;;;18.10;93.90;;;;;;5039599;28;20541;-49
2022/08/02 05:00:35;;;;;;;3.77;3.47;;;18.10;93.70;;;;;;5038732;28;20479;-48
2022/08/02 05:03:02;;;;;;;5.07;3.07;;;18.10;93.60;;;;;;5040167;28;20476;-48
2022/08/02 05:05:30;;;;;;;14.00;4.43;;;18.20;93.40;;;;;;5035983;28;20484;-48
2022/08/02 05:07:57;;;;;;;2.43;2.23;;;18.20;93.20;;;;;;5039070;28;20491;-48
2022/08/02 05:10:24;;;;;;;3.07;2.77;;;18.30;93.20;;;;;;5039889;28;20484;-48
2022/08/02 05:12:51;;;;;;;4.63;2.23;;;18.30;93.20;;;;;;5037993;28;20946;-48
2022/08/02 05:15:18;;;;;;;3.47;2.23;;;18.30;93.10;;;;;;5039084;28;20480;-48
2022/08/02 05:17:45;;;;;;;2.37;2.17;;;18.30;93.40;;;;;;5037420;28;20537;-48
2022/08/02 05:20:13;;;;;;;3.17;2.40;;;18.30;93.60;;;;;;5040109;28;21277;-48
2022/08/02 05:22:41;;;;;;;3.43;3.13;;;18.40;93.50;;;;;;5043044;28;20470;-48
2022/08/02 05:25:10;;;;;;;3.63;2.70;;;18.50;93.50;;;;;;5038212;28;20476;-49
2022/08/02 05:27:36;;;;;;;7.60;3.03;;;18.50;93.50;;;;;;5040018;28;20476;-49
2022/08/02 05:30:04;;;;;;;2.63;2.40;;;18.60;93.70;;;;;;5040260;28;20953;-49
2022/08/02 05:32:31;;;;;;;8.67;3.93;;;18.70;93.60;;;;;;5035767;28;20510;-49
2022/08/02 05:35:00;;;;;;;3.10;2.80;;;18.70;94.00;;;;;;5038011;28;20496;-49
2022/08/02 05:37:27;;;;;;;5.30;3.77;;;18.80;93.80;;;;;;5040245;28;20537;-49
2022/08/02 05:39:55;;;;;;;4.23;3.27;;;18.90;93.90;;;;;;5037605;28;20851;-49
2022/08/02 05:42:22;;;;;;;5.33;3.70;;;18.90;94.10;;;;;;5024729;28;20483;-49
2022/08/02 05:44:48;;;;;;;3.07;2.77;;;19.10;93.90;;;;;;5032466;28;20488;-49
2022/08/02 05:47:15;;;;;;;5.50;3.50;;;19.10;93.80;;;;;;5033284;28;20475;-49
2022/08/02 05:49:41;;;;;;;6.03;4.23;;;19.30;93.80;;;;;;5038016;28;20506;-49
2022/08/02 05:52:14;;;;;;;3.57;2.90;;;19.30;93.90;;;;;;5038645;28;21311;-49
2022/08/02 05:54:48;;;;;;;7.93;4.33;;;19.40;94.00;;;;;;5026847;28;20890;-49
2022/08/02 05:57:34;;;;;;;7.03;3.50;;;19.40;94.20;;;;;;5039053;28;20478;-49
2022/08/02 06:00:08;;;;;;;4.40;4.00;;;19.50;94.50;;;;;;5038959;28;20488;-49
2022/08/02 06:02:53;;;;;;;11.07;6.03;;;19.60;94.20;;;;;;5034813;28;20480;-49
2022/08/02 06:05:21;;;;;;;4.30;3.90;;;19.70;94.50;;;;;;5016633;28;20637;-49
2022/08/02 06:07:49;;;;;;;5.57;4.00;;;19.90;94.40;;;;;;5034898;28;20932;-49
2022/08/02 06:10:19;;;;;;;5.10;4.60;;;20.10;94.30;;;;;;5041197;28;20478;-48
2022/08/02 06:12:50;;;;;;;6.10;4.97;;;20.20;94.40;;;;;;5042320;28;20987;-49
2022/08/02 06:15:19;;;;;;;8.20;5.30;;;20.20;94.50;;;;;;5058339;28;21049;-49
2022/08/02 06:17:46;;;;;;;10.53;4.90;;;20.50;94.10;;;;;;5049626;28;20761;-49
2022/08/02 06:20:14;;;;;;;6.20;5.50;;;20.50;93.90;;;;;;5050082;28;20563;-49
2022/08/02 06:22:43;;;;;;;6.80;5.97;;;20.50;94.10;;;;;;5044679;28;20539;-49
2022/08/02 06:25:11;;;;;;;11.40;5.40;;;20.70;93.50;;;;;;5043909;28;20744;-49
2022/08/02 06:27:38;;;;;;;9.33;6.30;;;20.70;93.80;;;;;;5043649;28;20490;-49
2022/08/02 06:30:09;;;;;;;7.53;5.30;;;20.80;93.50;;;;;;5050428;28;20526;-49
2022/08/02 06:32:36;;;;;;;5.97;5.37;;;20.90;93.80;;;;;;5042258;28;20530;-49
2022/08/02 06:35:04;;;;;;;5.60;5.07;;;21.10;93.30;;;;;;5065625;28;20837;-49
2022/08/02 06:37:37;;;;;;;8.57;7.30;;;21.20;92.90;;;;;;5040339;28;20570;-49
2022/08/02 06:40:11;;;;;;;6.13;4.97;;;21.40;93.10;;;;;;5046722;28;20541;-49
2022/08/02 06:42:47;;;;;;;6.00;5.50;;;21.40;93.20;;;;;;5045376;28;20949;-50
2022/08/02 06:45:15;;;;;;;6.50;5.33;;;21.80;92.70;;;;;;5034345;28;20486;-49
2022/08/02 06:47:42;;;;;;;9.50;5.57;;;21.80;93.10;;;;;;5044147;28;20474;-50
2022/08/02 06:50:09;;;;;;;8.90;5.23;;;22.10;92.50;;;;;;5035506;28;20720;-49
2022/08/02 06:52:36;;;;;;;5.03;4.63;;;22.50;92.00;;;;;;5029017;28;20486;-50
2022/08/02 06:55:05;;;;;;;5.67;5.17;;;22.70;91.30;;;;;;5026654;28;20487;-49
2022/08/02 06:57:32;;;;;;;5.70;4.73;;;22.80;91.00;;;;;;5024327;28;20506;-53
2022/08/02 07:00:01;;;;;;;5.40;5.00;;;23.10;91.50;;;;;;5048359;28;20504;-49
2022/08/02 07:02:29;;;;;;;7.97;5.60;;;23.40;91.10;;;;;;5024942;28;20578;-50
2022/08/02 07:04:56;;;;;;;5.67;5.20;;;23.80;90.00;;;;;;5025573;28;20875;-49
2022/08/02 07:07:23;;;;;;;4.60;4.20;;;23.90;89.60;;;;;;5025447;28;20488;-50
2022/08/02 07:09:50;;;;;;;5.50;4.80;;;23.90;89.50;;;;;;5029574;28;20484;-50
2022/08/02 07:12:17;;;;;;;7.57;5.20;;;24.00;88.70;;;;;;5028007;28;20472;-50
2022/08/02 07:14:44;;;;;;;5.20;4.70;;;24.00;88.60;;;;;;5018159;28;20511;-49
2022/08/02 07:17:11;;;;;;;5.73;5.10;;;24.00;89.40;;;;;;5024494;28;21082;-49
2022/08/02 07:19:39;;;;;;;6.03;5.43;;;24.30;89.50;;;;;;5024482;28;20485;-50
2022/08/02 07:22:06;;;;;;;4.90;4.23;;;24.50;89.70;;;;;;5028277;28;20826;-50
2022/08/02 07:24:32;;;;;;;5.00;4.53;;;24.60;89.10;;;;;;5022253;28;20491;-50
2022/08/02 07:26:59;;;;;;;6.10;4.50;;;24.90;87.80;;;;;;5045285;28;20500;-50
2022/08/02 07:29:26;;;;;;;5.50;4.40;;;25.10;86.50;;;;;;5037400;28;20489;-50
2022/08/02 07:31:53;;;;;;;4.87;4.47;;;25.10;86.90;;;;;;5029457;28;20475;-50
2022/08/02 07:34:20;;;;;;;5.40;4.90;;;25.40;85.70;;;;;;5023436;28;20483;-50
2022/08/02 07:36:48;;;;;;;5.47;3.90;;;25.50;85.90;;;;;;5032301;28;21118;-50
2022/08/02 07:39:14;;;;;;;4.77;4.30;;;25.80;84.70;;;;;;5029210;28;20483;-50
2022/08/02 07:41:41;;;;;;;4.80;4.40;;;26.20;82.90;;;;;;5029954;28;20480;-50
2022/08/02 07:44:08;;;;;;;6.00;4.30;;;26.50;82.30;;;;;;5029361;28;20514;-50
2022/08/02 07:46:34;;;;;;;11.10;4.00;;;26.80;80.40;;;;;;5028569;28;20917;-50
2022/08/02 07:49:01;;;;;;;4.67;4.27;;;26.80;80.70;;;;;;5031338;28;20538;-51
2022/08/02 07:51:30;;;;;;;4.47;4.07;;;27.00;79.40;;;;;;5047017;28;20508;-50
2022/08/02 07:53:58;;;;;;;7.27;4.27;;;27.00;79.70;;;;;;5028348;28;21005;-50
2022/08/02 07:56:24;;;;;;;10.93;4.00;;;27.10;80.00;;;;;;5031537;28;20533;-50
2022/08/02 07:58:51;;;;;;;4.43;4.10;;;27.20;79.50;;;;;;5029921;28;20561;-50
2022/08/02 08:01:18;;;;;;;4.33;3.97;;;27.30;78.50;;;;;;5030643;28;20476;-49
2022/08/02 08:03:44;;;;;;;5.13;4.50;;;27.70;78.40;;;;;;5028015;28;20878;-49
2022/08/02 08:06:11;;;;;;;7.63;4.27;;;27.90;77.00;;;;;;5031945;28;20504;-50
2022/08/02 08:08:38;;;;;;;4.40;3.43;;;28.00;77.30;;;;;;5031569;28;20901;-50
2022/08/02 08:11:06;;;;;;;4.23;3.83;;;28.30;75.70;;;;;;5029213;28;21021;-50
2022/08/02 08:13:33;;;;;;;4.20;3.33;;;28.40;74.10;;;;;;5037613;28;20475;-50
2022/08/02 08:16:01;;;;;;;3.70;3.30;;;28.60;74.70;;;;;;5032798;28;20533;-50
2022/08/02 08:18:27;;;;;;;4.17;3.73;;;28.90;75.70;;;;;;5026980;28;20494;-50
2022/08/02 08:20:54;;;;;;;3.90;3.50;;;29.10;75.50;;;;;;5027006;28;20495;-50
2022/08/02 08:23:21;;;;;;;4.97;3.00;;;29.30;73.80;;;;;;5030562;28;20479;-50
2022/08/02 08:25:48;;;;;;;3.80;3.50;;;29.20;70.00;;;;;;5026197;28;20533;-50
2022/08/02 08:28:16;;;;;;;4.30;4.00;;;29.30;70.90;;;;;;5030344;28;20483;-50
2022/08/02 08:30:43;;;;;;;3.70;3.40;;;29.10;70.20;;;;;;5036394;28;20517;-50
2022/08/02 08:33:09;;;;;;;4.33;4.00;;;28.90;70.00;;;;;;5034469;28;20557;-50
2022/08/02 08:35:36;;;;;;;4.57;3.23;;;28.80;72.70;;;;;;5028512;28;20985;-51
2022/08/02 08:38:03;;;;;;;3.90;3.60;;;28.90;73.90;;;;;;5030804;28;20507;-50
2022/08/02 08:40:29;;;;;;;4.73;3.03;;;29.00;71.10;;;;;;5028628;28;20529;-50
2022/08/02 08:42:56;;;;;;;4.70;3.73;;;29.10;72.40;;;;;;5028907;28;20867;-50
2022/08/02 08:45:24;;;;;;;4.27;3.97;;;29.30;71.30;;;;;;5028783;28;21014;-50
2022/08/02 08:47:53;;;;;;;4.30;3.83;;;29.10;69.60;;;;;;5052481;28;20486;-50
2022/08/02 08:50:24;;;;;;;3.60;3.30;;;28.90;69.20;;;;;;5029107;28;20487;-50
2022/08/02 08:52:54;;;;;;;4.93;4.50;;;28.50;70.60;;;;;;5025674;28;21187;-50
2022/08/02 08:55:23;;;;;;;4.97;3.63;;;28.60;71.60;;;;;;5020957;28;20495;-50
2022/08/02 08:57:50;;;;;;;4.20;3.80;;;28.80;71.60;;;;;;5053597;28;20529;-50
2022/08/02 09:00:17;;;;;;;4.60;4.20;;;28.70;70.80;;;;;;5032896;28;20488;-49
2022/08/02 09:02:45;;;;;;;4.63;3.67;;;28.30;68.90;;;;;;5029270;28;20480;-50
2022/08/02 09:05:14;;;;;;;4.07;3.77;;;28.50;70.50;;;;;;5028801;28;20500;-50
2022/08/02 09:07:43;;;;;;;3.70;3.40;;;28.70;71.00;;;;;;5026774;28;20476;-50
2022/08/02 09:10:32;;;;;;;5.27;4.30;;;29.10;71.20;;;;;;5017740;28;21155;-50
2022/08/02 09:13:07;;;;;;;4.67;4.27;;;29.90;70.00;;;;;;5026259;28;20900;-50
2022/08/02 09:15:34;;;;;;;4.10;3.70;;;29.90;67.90;;;;;;5013538;28;20605;-50
2022/08/02 09:18:03;;;;;;;4.03;3.73;;;30.00;67.90;;;;;;5035347;28;20512;-50
2022/08/02 09:20:29;;;;;;;5.13;3.50;;;29.90;67.50;;;;;;5037817;28;20458;-50
2022/08/02 09:23:06;;;;;;;3.80;3.50;;;30.00;67.90;;;;;;5025153;28;20480;-51
2022/08/02 09:25:33;;;;;;;4.20;3.90;;;29.90;67.10;;;;;;5017925;28;20630;-51
2022/08/02 09:28:00;;;;;;;4.33;3.90;;;29.50;66.50;;;;;;5056288;28;20480;-50
2022/08/02 09:30:27;;;;;;;4.53;4.23;;;29.20;67.70;;;;;;5029692;28;20506;-51
2022/08/02 09:32:54;;;;;;;4.20;3.87;;;29.20;68.60;;;;;;5025711;28;20880;-50
2022/08/02 09:35:39;;;;;;;4.13;3.73;;;29.10;67.70;;;;;;5026249;28;21013;-50
2022/08/02 09:38:10;;;;;;;3.50;3.20;;;29.10;68.10;;;;;;5029009;28;20854;-50
2022/08/02 09:40:38;;;;;;;6.07;3.17;;;29.30;69.70;;;;;;5037285;28;20556;-51
2022/08/02 09:43:05;;;;;;;4.97;3.40;;;29.40;70.50;;;;;;5024252;28;20472;-50
2022/08/02 09:45:33;;;;;;;4.13;3.43;;;30.00;69.20;;;;;;5022666;28;20530;-51
2022/08/02 09:48:01;;;;;;;3.20;2.90;;;30.40;67.70;;;;;;5030066;28;20929;-50
2022/08/02 09:50:27;;;;;;;3.63;3.33;;;30.70;66.30;;;;;;5031202;28;20488;-50
2022/08/02 09:52:56;;;;;;;3.00;2.70;;;31.30;65.60;;;;;;5028375;28;20484;-50
2022/08/02 09:55:24;;;;;;;2.60;2.40;;;31.40;64.20;;;;;;5023791;28;20512;-50
2022/08/02 09:57:51;;;;;;;3.27;2.97;;;31.70;63.60;;;;;;5042524;28;20836;-51
2022/08/02 10:00:18;;;;;;;2.70;2.47;;;32.00;62.20;;;;;;5035237;28;20492;-50
2022/08/02 10:03:08;;;;;;;2.60;2.40;;;32.30;63.20;;;;;;5027285;28;21233;-51
2022/08/02 10:05:49;;;;;;;2.20;1.80;;;32.40;57.70;;;;;;5023521;28;20977;-51
2022/08/02 10:08:17;;;;;;;3.20;2.47;;;32.20;57.10;;;;;;5028580;28;20928;-50
2022/08/02 10:10:44;;;;;;;2.10;1.63;;;32.10;59.10;;;;;;5024193;28;20492;-56
2022/08/02 10:13:12;;;;;;;2.57;1.97;;;32.10;60.60;;;;;;5021893;28;20457;-50
2022/08/02 10:15:39;;;;;;;2.70;2.50;;;32.20;60.40;;;;;;5046988;28;20912;-50
2022/08/02 10:18:07;;;;;;;2.97;2.67;;;32.40;59.80;;;;;;5024589;28;20493;-49
2022/08/02 10:20:40;;;;;;;2.77;2.40;;;32.50;59.60;;;;;;5024129;28;20458;-51
2022/08/02 10:23:08;;;;;;;3.57;2.77;;;32.70;59.20;;;;;;5027062;28;20500;-50
2022/08/02 10:25:38;;;;;;;4.30;2.17;;;32.70;58.10;;;;;;5022577;28;20560;-51
2022/08/02 10:28:06;;;;;;;2.53;2.33;;;32.50;58.00;;;;;;5036203;28;20573;-50
2022/08/02 10:30:36;;;;;;;5.73;2.80;;;32.70;58.60;;;;;;5034348;28;20997;-50
2022/08/02 10:33:06;;;;;;;3.27;2.10;;;32.90;58.20;;;;;;5027429;28;20892;-49
2022/08/02 10:35:39;;;;;;;4.20;2.50;;;33.00;58.10;;;;;;5018292;28;20463;-49
2022/08/02 10:38:12;;;;;;;2.53;2.33;;;33.10;58.40;;;;;;5039558;28;20475;-49
2022/08/02 10:40:49;;;;;;;3.60;2.33;;;32.90;55.60;;;;;;5022753;28;20469;-50
2022/08/02 10:43:41;;;;;;;2.90;2.50;;;32.70;56.40;;;;;;5016487;28;20852;-50
2022/08/02 10:46:29;;;;;;;4.20;2.50;;;32.70;57.20;;;;;;5028760;28;20469;-50
2022/08/02 10:49:08;;;;;;;2.60;2.40;;;32.80;57.50;;;;;;5025349;28;20477;-50
2022/08/02 10:51:55;;;;;;;2.50;2.17;;;32.70;56.80;;;;;;5027047;28;20553;-50
2022/08/02 10:54:25;;;;;;;2.80;2.50;;;32.60;58.70;;;;;;5023479;28;20464;-50
2022/08/02 10:56:54;;;;;;;2.40;2.20;;;32.50;58.00;;;;;;5029724;28;20528;-50
2022/08/02 10:59:25;;;;;;;2.40;2.17;;;32.70;57.80;;;;;;5029742;28;20867;-50
2022/08/02 11:01:59;;;;;;;2.90;2.40;;;32.70;56.70;;;;;;5030443;28;20972;-50
2022/08/02 11:04:27;;;;;;;5.03;2.60;;;32.30;57.60;;;;;;5015704;28;20493;-50
2022/08/02 11:07:08;;;;;;;2.67;2.47;;;32.40;57.20;;;;;;5031140;28;20488;-50
2022/08/02 11:09:35;;;;;;;3.00;2.70;;;32.10;58.20;;;;;;5021001;28;20457;-51
2022/08/02 11:12:04;;;;;;;2.80;2.60;;;32.10;58.60;;;;;;5029940;28;20494;-50
2022/08/02 11:14:33;;;;;;;5.53;2.67;;;32.00;59.10;;;;;;5028813;28;20895;-50
2022/08/02 11:17:08;;;;;;;3.47;2.50;;;31.90;59.40;;;;;;5030987;28;20537;-50
2022/08/02 11:19:55;;;;;;;6.50;2.70;;;32.20;60.30;;;;;;5030553;28;20492;-48
2022/08/02 11:22:22;;;;;;;3.23;2.93;;;32.70;59.60;;;;;;5049677;28;20489;-49
2022/08/02 11:24:49;;;;;;;2.60;2.40;;;32.90;59.00;;;;;;5029987;28;20480;-50
2022/08/02 11:27:20;;;;;;;3.80;2.57;;;33.10;57.40;;;;;;5028009;28;20878;-50
2022/08/02 11:29:48;;;;;;;6.07;2.37;;;33.70;56.40;;;;;;5030345;28;20476;-50
2022/08/02 11:32:17;;;;;;;4.77;2.97;;;33.70;57.60;;;;;;5031650;28;20462;-50
2022/08/02 11:34:47;;;;;;;5.73;2.60;;;33.90;54.00;;;;;;5027956;28;20455;-51
2022/08/02 11:37:26;;;;;;;2.50;2.30;;;33.80;54.30;;;;;;5027548;28;21051;-50
2022/08/02 11:39:53;;;;;;;3.17;2.97;;;33.90;55.80;;;;;;5030907;28;20488;-51
2022/08/02 11:42:21;;;;;;;2.27;2.07;;;33.90;55.50;;;;;;5030623;28;20530;-51
2022/08/02 11:44:48;;;;;;;2.90;2.07;;;34.10;55.60;;;;;;5024286;28;20626;-50
2022/08/02 11:47:15;;;;;;;2.73;2.43;;;34.10;55.60;;;;;;5030147;28;20482;-51
2022/08/02 11:49:43;;;;;;;3.57;2.67;;;34.30;55.70;;;;;;5026204;28;20857;-50
2022/08/02 11:52:10;;;;;;;3.50;2.43;;;34.60;54.60;;;;;;5030228;28;20472;-51
2022/08/02 11:54:39;;;;;;;2.50;2.30;;;34.50;54.00;;;;;;5026528;28;20581;-50
2022/08/02 11:57:13;;;;;;;3.13;2.30;;;34.60;54.50;;;;;;5029521;28;20469;-51
2022/08/02 11:59:43;;;;;;;2.30;2.10;;;34.70;54.90;;;;;;5031258;28;20994;-50
2022/08/02 12:02:10;;;;;;;2.37;2.17;;;34.70;54.50;;;;;;5028365;28;20450;-50
2022/08/02 12:04:38;;;;;;;2.50;2.30;;;34.80;54.30;;;;;;5040120;28;21247;-51
2022/08/02 12:07:05;;;;;;;2.20;2.00;;;35.00;53.90;;;;;;5034569;28;20863;-56
2022/08/02 12:09:34;;;;;;;2.57;2.10;;;35.10;53.80;;;;;;5027397;28;20494;-50
2022/08/02 12:12:01;;;;;;;2.83;2.33;;;34.90;52.40;;;;;;5028031;28;20893;-49
2022/08/02 12:14:30;;;;;;;3.10;1.80;;;35.00;52.70;;;;;;5025620;28;20487;-49
2022/08/02 12:19:43;;;;;;;4.43;1.90;;;35.10;53.70;;;;;;5040352;28;20473;-50
2022/08/02 12:22:13;;;;;;;3.13;2.13;;;35.30;53.80;;;;;;5026753;28;20980;-50
2022/08/02 12:24:41;;;;;;;2.70;2.43;;;35.30;54.00;;;;;;5025162;28;20459;-51
2022/08/02 12:27:09;;;;;;;4.20;2.90;;;35.10;51.40;;;;;;5030394;28;20454;-50
2022/08/02 12:29:37;;;;;;;2.73;1.80;;;34.90;52.60;;;;;;5029290;28;20441;-50
2022/08/02 12:32:06;;;;;;;2.40;2.20;;;34.80;53.30;;;;;;5057250;28;20537;-50
2022/08/02 12:34:34;;;;;;;2.63;2.43;;;;;;;;;;5054748;28;21046;-50
2022/08/02 12:37:04;;;;;;;2.27;2.07;;;34.20;51.40;;;;;;5048569;28;20450;-50
2022/08/02 12:39:39;;;;;;;2.90;2.70;;;33.80;51.70;;;;;;5028419;28;20459;-50
2022/08/02 12:42:07;;;;;;;2.33;2.10;;;33.20;51.00;;;;;;5030241;28;21405;-49
2022/08/02 12:44:35;;;;;;;2.60;2.40;;;32.80;51.90;;;;;;5026807;28;20450;-53
2022/08/02 12:47:03;;;;;;;3.00;1.87;;;32.70;54.00;;;;;;5029321;28;20798;-49
2022/08/02 12:49:32;;;;;;;5.40;2.73;;;32.80;53.60;;;;;;5030147;28;21138;-49
2022/08/02 12:51:58;;;;;;;2.30;1.97;;;32.80;51.40;;;;;;5030963;28;20528;-50
2022/08/02 12:54:28;;;;;;;3.07;2.37;;;33.00;53.40;;;;;;5026055;28;20475;-49
2022/08/02 12:56:55;;;;;;;4.23;2.80;;;32.90;52.10;;;;;;5029844;28;20512;-50
2022/08/02 12:59:35;;;;;;;2.37;2.17;;;32.80;52.10;;;;;;5025839;28;20459;-50
2022/08/02 13:02:03;;;;;;;3.60;2.30;;;32.40;53.60;;;;;;5021973;28;20484;-49
2022/08/02 13:04:31;;;;;;;1.90;1.67;;;32.80;55.00;;;;;;5026692;28;20451;-49